createdAt,value
2022-10-03T00:02:46.046Z,28.37
2022-10-03T00:06:56.713Z,32.13
2022-10-03T00:11:13.779Z,38.10
2022-10-03T00:15:27.836Z,34.23
2022-10-03T00:19:38.463Z,36.63
2022-10-03T00:23:49.028Z,36.33
2022-10-03T00:28:09.109Z,37.30
2022-10-03T00:32:22.500Z,34.43
2022-10-03T00:36:42.217Z,37.67
2022-10-03T00:41:08.861Z,29.37
2022-10-03T00:45:39.477Z,38.90
2022-10-03T00:50:16.072Z,41.43
2022-10-03T00:54:39.897Z,58.57
2022-10-03T00:59:04.383Z,61.80
2022-10-03T01:03:27.241Z,68.87
2022-10-03T01:07:38.439Z,57.33
2022-10-03T01:11:49.647Z,57.03
2022-10-03T01:16:21.814Z,78.93
2022-10-03T01:20:52.438Z,203.13
2022-10-03T01:25:00.017Z,62.57
2022-10-03T01:29:23.089Z,53.23
2022-10-03T01:33:34.477Z,56.87
2022-10-03T01:37:39.378Z,56.63
2022-10-03T01:41:49.908Z,61.17
2022-10-03T01:46:28.390Z,58.70
2022-10-03T01:50:45.794Z,65.10
2022-10-03T01:55:08.767Z,56.33
2022-10-03T01:59:13.410Z,53.83
2022-10-03T02:03:30.200Z,47.63
2022-10-03T02:07:46.892Z,53.30
2022-10-03T02:12:03.633Z,54.77
2022-10-03T02:16:17.614Z,54.93
2022-10-03T02:20:37.652Z,56.90
2022-10-03T02:24:54.968Z,44.50
2022-10-03T02:29:14.932Z,49.80
2022-10-03T02:33:52.266Z,57.17
2022-10-03T02:38:00.097Z,48.27
2022-10-03T02:42:25.733Z,55.93
2022-10-03T02:46:53.649Z,48.10
2022-10-03T02:51:17.869Z,46.00
2022-10-03T02:55:31.333Z,54.43
2022-10-03T02:59:39.563Z,52.70
2022-10-03T03:04:00.883Z,55.97
2022-10-03T03:08:08.351Z,53.43
2022-10-03T03:12:44.671Z,56.80
2022-10-03T03:17:13.551Z,47.83
2022-10-03T03:21:36.202Z,57.23
2022-10-03T03:25:59.331Z,52.40
2022-10-03T03:30:21.954Z,52.53
2022-10-03T03:34:48.439Z,52.00
2022-10-03T03:39:11.590Z,65.67
2022-10-03T03:43:38.868Z,65.27
2022-10-03T03:47:55.851Z,53.13
2022-10-03T03:52:03.631Z,56.47
2022-10-03T03:56:34.391Z,51.37
2022-10-03T04:00:54.621Z,48.00
2022-10-03T04:05:13.974Z,56.50
2022-10-03T04:09:42.842Z,55.63
2022-10-03T04:14:07.476Z,52.27
2022-10-03T04:18:53.001Z,50.23
2022-10-03T04:23:10.001Z,62.67
2022-10-03T04:27:29.611Z,61.33
2022-10-03T04:31:51.192Z,58.17
2022-10-03T04:36:11.028Z,56.37
2022-10-03T04:40:30.184Z,70.27
2022-10-03T04:44:37.644Z,49.93
2022-10-03T04:48:54.309Z,56.40
2022-10-03T04:53:19.872Z,55.07
2022-10-03T04:57:45.367Z,50.30
2022-10-03T05:02:02.705Z,57.53
2022-10-03T05:06:27.311Z,51.40
2022-10-03T05:10:35.408Z,48.60
2022-10-03T05:14:58.305Z,45.10
2022-10-03T05:19:19.699Z,52.63
2022-10-03T05:23:36.370Z,41.60
2022-10-03T05:27:43.925Z,35.70
2022-10-03T05:32:00.469Z,41.23
2022-10-03T05:36:11.490Z,36.07
2022-10-03T05:40:25.420Z,35.23
2022-10-03T05:44:39.656Z,32.70
2022-10-03T05:48:44.621Z,43.63
2022-10-03T05:53:07.782Z,45.43
2022-10-03T05:57:29.061Z,42.63
2022-10-03T06:01:36.888Z,42.07
2022-10-03T06:06:07.260Z,52.90
2022-10-03T06:10:33.239Z,34.90
2022-10-03T06:15:09.858Z,41.17
2022-10-03T06:19:14.729Z,33.40
2022-10-03T06:23:46.713Z,35.03
2022-10-03T06:28:08.310Z,37.07
2022-10-03T06:32:35.987Z,38.10
2022-10-03T06:36:43.789Z,41.03
2022-10-03T06:41:08.124Z,42.07
2022-10-03T06:45:19.168Z,32.30
2022-10-03T06:49:41.890Z,30.47
2022-10-03T06:54:06.504Z,42.27
2022-10-03T06:58:34.067Z,31.07
2022-10-03T07:03:01.110Z,31.63
2022-10-03T07:07:25.333Z,30.27
2022-10-03T07:11:46.093Z,30.40
2022-10-03T07:16:14.286Z,28.70
2022-10-03T07:20:13.065Z,27.73
2022-10-03T07:24:53.006Z,26.93
2022-10-03T07:29:15.684Z,27.20
2022-10-03T07:33:47.053Z,21.33
2022-10-03T07:38:25.283Z,27.60
2022-10-03T07:42:33.047Z,22.47
2022-10-03T07:46:52.268Z,19.60
2022-10-03T07:51:12.550Z,25.40
2022-10-03T07:55:36.963Z,21.40
2022-10-03T08:00:13.354Z,25.87
2022-10-03T08:04:39.200Z,21.57
2022-10-03T08:08:52.921Z,20.03
2022-10-03T08:13:19.113Z,21.50
2022-10-03T08:17:26.580Z,15.53
2022-10-03T08:21:35.804Z,18.40
2022-10-03T08:26:03.470Z,23.10
2022-10-03T08:30:22.284Z,18.13
2022-10-03T08:34:55.769Z,19.13
2022-10-03T08:39:26.231Z,14.13
2022-10-03T08:43:57.605Z,15.40
2022-10-03T08:48:18.066Z,12.70
2022-10-03T08:52:44.040Z,15.60
2022-10-03T08:57:12.723Z,13.83
2022-10-03T09:01:34.322Z,12.43
2022-10-03T09:05:45.003Z,14.83
2022-10-03T09:10:09.324Z,10.70
2022-10-03T09:14:30.655Z,9.90
2022-10-03T09:19:03.552Z,10.63
2022-10-03T09:23:11.138Z,7.80
2022-10-03T09:27:35.644Z,8.73
2022-10-03T09:35:50.385Z,10.97
2022-10-03T09:40:26.995Z,8.57
2022-10-03T09:44:52.515Z,9.27
2022-10-03T09:49:12.430Z,6.77
2022-10-03T09:53:31.917Z,5.17
2022-10-03T09:57:54.241Z,8.67
2022-10-03T10:02:16.884Z,4.93
2022-10-03T10:06:24.654Z,5.60
2022-10-03T10:10:31.230Z,9.87
2022-10-03T10:14:47.969Z,8.27
2022-10-03T10:19:10.125Z,10.57
2022-10-03T10:23:29.836Z,7.80
2022-10-03T10:28:07.748Z,8.57
2022-10-03T10:32:27.955Z,6.03
2022-10-03T10:36:42.310Z,7.10
2022-10-03T10:41:20.208Z,6.97
2022-10-03T10:45:35.388Z,5.77
2022-10-03T10:50:13.446Z,7.77
2022-10-03T10:54:30.240Z,5.53
2022-10-03T10:58:50.144Z,5.70
2022-10-03T11:03:10.088Z,5.87
2022-10-03T11:07:50.699Z,3.60
2022-10-03T11:12:19.957Z,4.37
2022-10-03T11:16:34.657Z,5.40
2022-10-03T11:21:08.282Z,2.07
2022-10-03T11:25:34.071Z,3.00
2022-10-03T11:29:58.375Z,4.47
2022-10-03T11:34:36.391Z,5.40
2022-10-03T11:38:41.325Z,5.23
2022-10-03T11:43:01.223Z,8.33
2022-10-03T11:47:17.853Z,3.97
2022-10-03T11:51:39.262Z,7.93
2022-10-03T11:55:46.844Z,3.57
2022-10-03T12:00:00.537Z,5.17
2022-10-03T12:04:22.011Z,5.93
2022-10-03T12:08:51.795Z,3.77
2022-10-03T12:12:55.580Z,3.70
2022-10-03T12:17:04.836Z,5.50
2022-10-03T12:21:21.974Z,5.20
2022-10-03T12:25:25.614Z,5.50
2022-10-03T12:29:32.076Z,6.87
2022-10-03T12:33:58.029Z,8.83
2022-10-03T12:38:22.867Z,5.60
2022-10-03T12:42:27.909Z,6.37
2022-10-03T12:46:59.853Z,5.97
2022-10-03T12:51:04.234Z,6.57
2022-10-03T12:55:21.349Z,4.20
2022-10-03T12:59:32.160Z,4.47
2022-10-03T13:03:43.810Z,5.50
2022-10-03T13:08:01.633Z,11.07
2022-10-03T13:12:06.855Z,6.03
2022-10-03T13:16:21.377Z,8.87
2022-10-03T13:20:31.936Z,6.40
2022-10-03T13:24:45.600Z,5.23
2022-10-03T13:28:58.274Z,6.83
2022-10-03T13:33:03.121Z,4.13
2022-10-03T13:37:10.873Z,6.77
2022-10-03T13:41:32.701Z,11.53
2022-10-03T13:45:34.551Z,5.80
2022-10-03T13:49:42.297Z,6.00
2022-10-03T13:54:00.471Z,5.20
2022-10-03T13:58:28.511Z,4.50
2022-10-03T14:02:42.389Z,6.17
2022-10-03T14:06:56.275Z,6.63
2022-10-03T14:11:09.672Z,5.83
2022-10-03T14:15:32.379Z,6.80
2022-10-03T14:20:10.394Z,7.23
2022-10-03T14:24:42.394Z,5.90
2022-10-03T14:28:53.146Z,8.23
2022-10-03T14:33:11.629Z,6.87
2022-10-03T14:37:19.626Z,6.20
2022-10-03T14:41:33.577Z,7.40
2022-10-03T14:45:38.865Z,6.80
2022-10-03T14:49:58.452Z,9.83
2022-10-03T14:53:55.315Z,9.90
2022-10-03T14:58:10.811Z,6.87
2022-10-03T15:02:29.942Z,9.47
2022-10-03T15:06:41.434Z,7.93
2022-10-03T15:10:44.463Z,6.30
2022-10-03T15:14:49.563Z,7.20
2022-10-03T15:19:04.917Z,5.67
2022-10-03T15:23:10.126Z,7.27
2022-10-03T15:27:14.985Z,6.20
2022-10-03T15:31:22.868Z,8.17
2022-10-03T15:35:27.345Z,5.20
2022-10-03T15:39:32.494Z,7.80
2022-10-03T15:44:12.271Z,5.20
2022-10-03T15:48:17.210Z,9.37
2022-10-03T15:52:25.106Z,5.70
2022-10-03T15:56:30.973Z,6.73
2022-10-03T16:00:35.566Z,9.97
2022-10-03T16:04:40.544Z,6.50
2022-10-03T16:09:10.453Z,7.70
2022-10-03T16:13:18.747Z,6.73
2022-10-03T16:17:33.127Z,6.33
2022-10-03T16:21:51.560Z,10.50
2022-10-03T16:26:07.516Z,8.17
2022-10-03T16:30:14.442Z,8.67
2022-10-03T16:34:18.335Z,10.10
2022-10-03T16:38:26.448Z,6.37
2022-10-03T16:42:39.851Z,7.77
2022-10-03T16:46:44.764Z,9.93
2022-10-03T16:50:52.376Z,8.10
2022-10-03T16:55:02.318Z,8.33
2022-10-03T16:59:15.646Z,8.10
2022-10-03T17:03:23.184Z,10.93
2022-10-03T17:07:31.326Z,8.43
2022-10-03T17:11:36.469Z,10.47
2022-10-03T17:15:48.180Z,11.47
2022-10-03T17:20:03.813Z,8.93
2022-10-03T17:24:15.164Z,11.67
2022-10-03T17:28:23.391Z,17.50
2022-10-03T17:32:40.075Z,11.17
2022-10-03T17:37:14.356Z,8.40
2022-10-03T17:41:25.271Z,15.13
2022-10-03T17:45:33.325Z,13.67
2022-10-03T17:49:59.677Z,10.27
2022-10-03T17:54:05.167Z,13.23
2022-10-03T17:58:18.513Z,8.83
2022-10-03T18:02:22.670Z,15.73
2022-10-03T18:06:35.531Z,12.50
2022-10-03T18:10:42.088Z,9.37
2022-10-03T18:14:56.417Z,10.50
2022-10-03T18:19:25.529Z,11.43
2022-10-03T18:23:55.320Z,13.63
2022-10-03T18:28:20.318Z,15.33
2022-10-03T18:32:24.116Z,11.17
2022-10-03T18:36:28.993Z,10.80
2022-10-03T18:40:36.993Z,17.37
2022-10-03T18:44:41.783Z,22.73
2022-10-03T18:49:03.083Z,16.57
2022-10-03T18:52:59.410Z,14.20
2022-10-03T18:57:10.264Z,20.77
2022-10-03T19:01:18.662Z,13.53
2022-10-03T19:05:48.063Z,13.23
2022-10-03T19:10:04.906Z,21.13
2022-10-03T19:14:24.703Z,18.30
2022-10-03T19:18:31.938Z,20.37
2022-10-03T19:22:39.949Z,18.37
2022-10-03T19:26:47.723Z,18.07
2022-10-03T19:31:05.000Z,22.57
2022-10-03T19:35:09.032Z,21.63
2022-10-03T19:39:16.606Z,20.27
2022-10-03T19:43:31.756Z,19.67
2022-10-03T19:47:40.575Z,24.03
2022-10-03T19:51:44.023Z,21.30
2022-10-03T19:55:54.173Z,24.33
2022-10-03T20:00:00.213Z,24.70
2022-10-03T20:04:03.199Z,19.70
2022-10-03T20:08:22.821Z,17.90
2022-10-03T20:12:28.962Z,23.27
2022-10-03T20:16:35.623Z,21.57
2022-10-03T20:20:37.832Z,18.70
2022-10-03T20:24:45.290Z,21.23
2022-10-03T20:28:57.001Z,23.10
2022-10-03T20:32:59.619Z,21.13
2022-10-03T20:37:23.565Z,18.20
2022-10-03T20:41:59.071Z,18.60
2022-10-03T20:46:18.294Z,15.57
2022-10-03T20:50:26.655Z,15.60
2022-10-03T20:54:36.955Z,15.53
2022-10-03T20:58:47.950Z,22.07
2022-10-03T21:02:54.302Z,18.63
2022-10-03T21:07:05.546Z,27.20
2022-10-03T21:11:23.685Z,22.43
2022-10-03T21:15:47.098Z,19.50
2022-10-03T21:20:00.700Z,15.63
2022-10-03T21:24:17.348Z,23.00
2022-10-03T21:28:31.660Z,16.03
2022-10-03T21:32:53.420Z,19.90
2022-10-03T21:37:04.822Z,25.23
2022-10-03T21:41:22.493Z,22.37
2022-10-03T21:45:51.914Z,29.17
2022-10-03T21:50:06.284Z,21.03
2022-10-03T21:54:27.768Z,19.37
2022-10-03T21:58:33.209Z,19.30
2022-10-03T22:02:41.503Z,17.53
2022-10-03T22:07:04.989Z,20.47
2022-10-03T22:11:30.994Z,15.90
2022-10-03T22:16:10.949Z,21.10
2022-10-03T22:20:22.775Z,19.33
2022-10-03T22:24:27.447Z,21.90
2022-10-03T22:28:35.765Z,21.53
2022-10-03T22:32:49.819Z,25.70
2022-10-03T22:36:50.988Z,21.07
2022-10-03T22:40:54.566Z,19.27
2022-10-03T22:44:57.003Z,15.47
2022-10-03T22:49:08.138Z,19.70
2022-10-03T22:53:13.143Z,20.07
2022-10-03T22:57:15.013Z,16.43
2022-10-03T23:01:16.892Z,16.83
2022-10-03T23:05:26.134Z,19.83
2022-10-03T23:09:40.206Z,15.50
2022-10-03T23:13:43.356Z,15.50
2022-10-03T23:17:54.586Z,17.57
2022-10-03T23:21:57.861Z,14.97
2022-10-03T23:26:17.763Z,14.57
2022-10-03T23:30:25.243Z,20.93
2022-10-03T23:34:35.864Z,13.50
2022-10-03T23:38:40.623Z,16.40
2022-10-03T23:42:43.979Z,21.50
2022-10-03T23:46:45.909Z,31.60
2022-10-03T23:50:50.710Z,26.80
2022-10-03T23:54:55.171Z,36.47
2022-10-03T23:58:59.799Z,23.67
